Time;durP1;ratioP1;P1;durP2;ratioP2;P2;SDS_P1;SDS_P2;PMS_P1;PMS_P2;Temp;Humidity;BMP_temperature;BMP_pressure;BME280_temperature;BME280_humidity;BME280_pressure;Samples;Min_cycle;Max_cycle;Signal;HPM_P1;HPM_P2
2021/12/12 00:02:10;;;;;;;12.20;7.85;;;10.50;99.90;;;;;;5033448;28;20080;-69
2021/12/12 00:04:39;;;;;;;14.38;8.07;;;10.50;99.90;;;;;;5033916;28;20064;-70
2021/12/12 00:07:09;;;;;;;10.02;6.68;;;10.50;99.90;;;;;;5049212;28;20052;-70
2021/12/12 00:09:40;;;;;;;13.50;7.43;;;10.50;99.90;;;;;;5032573;28;20040;-69
2021/12/12 00:12:11;;;;;;;10.80;6.97;;;10.50;99.90;;;;;;5050419;28;20044;-69
2021/12/12 00:14:38;;;;;;;17.27;7.25;;;10.60;99.90;;;;;;5048880;28;20500;-68
2021/12/12 00:17:06;;;;;;;15.25;6.35;;;10.50;99.90;;;;;;5028786;28;20053;-69
2021/12/12 00:19:35;;;;;;;10.40;6.38;;;10.50;99.90;;;;;;5034368;28;20089;-69
2021/12/12 00:22:07;;;;;;;18.40;6.33;;;10.50;99.90;;;;;;5050367;28;20123;-69
2021/12/12 00:24:37;;;;;;;15.05;6.32;;;10.50;99.90;;;;;;5050149;28;20483;-68
2021/12/12 00:27:04;;;;;;;9.45;5.53;;;10.60;99.90;;;;;;5049769;28;20056;-68
2021/12/12 00:29:31;;;;;;;14.90;5.70;;;10.60;99.90;;;;;;5050031;28;20428;-69
2021/12/12 00:32:05;;;;;;;9.55;6.15;;;10.60;99.90;;;;;;5050381;28;20075;-69
2021/12/12 00:34:35;;;;;;;13.05;5.53;;;10.70;99.90;;;;;;5048794;28;20057;-69
2021/12/12 00:37:06;;;;;;;9.82;6.28;;;10.60;99.90;;;;;;5048457;28;20099;-69
2021/12/12 00:39:34;;;;;;;11.68;5.30;;;10.70;99.90;;;;;;5049828;28;20049;-69
2021/12/12 00:42:12;;;;;;;9.13;4.88;;;10.70;99.90;;;;;;5048572;28;20055;-70
2021/12/12 00:44:41;;;;;;;13.27;6.00;;;10.70;99.90;;;;;;5032306;28;20385;-69
2021/12/12 00:47:09;;;;;;;9.05;4.65;;;10.70;99.90;;;;;;5046346;28;20049;-69
2021/12/12 00:49:37;;;;;;;13.15;5.10;;;10.70;99.90;;;;;;5048577;28;20051;-69
2021/12/12 00:52:06;;;;;;;16.80;5.33;;;10.70;99.90;;;;;;5031930;28;20053;-69
2021/12/12 00:54:34;;;;;;;13.48;5.30;;;10.80;99.90;;;;;;5031769;28;20792;-69
2021/12/12 00:57:04;;;;;;;9.43;3.92;;;10.80;99.90;;;;;;5048364;28;20492;-70
2021/12/12 00:59:31;;;;;;;10.77;4.57;;;10.80;99.90;;;;;;5049633;28;20500;-69
2021/12/12 01:01:58;;;;;;;11.35;4.07;;;10.80;99.90;;;;;;5049807;28;20075;-69
2021/12/12 01:04:28;;;;;;;10.90;5.10;;;10.80;99.90;;;;;;5048702;28;20127;-69
2021/12/12 01:07:01;;;;;;;12.05;4.75;;;10.80;99.90;;;;;;5048227;28;20078;-70
2021/12/12 01:09:32;;;;;;;8.95;4.65;;;10.80;99.90;;;;;;5048830;28;20052;-70
2021/12/12 01:12:00;;;;;;;13.07;5.20;;;10.80;99.90;;;;;;5031788;28;20118;-74
2021/12/12 01:14:33;;;;;;;8.32;3.78;;;10.90;99.90;;;;;;5049668;28;20393;-69
2021/12/12 01:17:06;;;;;;;14.90;4.32;;;10.90;99.90;;;;;;5031711;28;20049;-70
2021/12/12 01:19:40;;;;;;;10.40;3.88;;;10.90;99.90;;;;;;5049493;28;20518;-68
2021/12/12 01:22:10;;;;;;;11.43;4.15;;;10.90;99.90;;;;;;5048616;28;20053;-69
2021/12/12 01:24:40;;;;;;;9.55;3.78;;;10.90;99.90;;;;;;5032022;28;20080;-68
2021/12/12 01:27:07;;;;;;;12.73;3.67;;;10.90;99.90;;;;;;5067679;28;20492;-70
2021/12/12 01:29:34;;;;;;;13.18;3.97;;;10.90;99.90;;;;;;5064177;28;20041;-70
2021/12/12 01:32:03;;;;;;;14.68;4.22;;;10.90;99.90;;;;;;5054015;28;20067;-70
2021/12/12 01:34:31;;;;;;;16.05;4.78;;;10.90;99.90;;;;;;5051113;28;20072;-70
2021/12/12 01:37:33;;;;;;;12.82;4.43;;;10.90;99.90;;;;;;5049560;28;20041;-70
2021/12/12 01:40:16;;;;;;;11.23;4.43;;;10.90;99.90;;;;;;5055442;28;20045;-70
2021/12/12 01:42:49;;;;;;;18.17;5.03;;;10.90;99.90;;;;;;5053720;28;20055;-72
2021/12/12 01:45:44;;;;;;;12.05;4.43;;;10.90;99.90;;;;;;5032744;28;20099;-70
2021/12/12 01:48:17;;;;;;;11.20;5.18;;;10.90;99.90;;;;;;5056774;28;20048;-70
2021/12/12 01:50:53;;;;;;;16.27;4.65;;;10.90;99.90;;;;;;5057980;28;20527;-70
2021/12/12 01:53:26;;;;;;;18.17;4.70;;;10.90;99.90;;;;;;5032963;28;20087;-70
2021/12/12 01:55:58;;;;;;;13.70;5.50;;;10.80;99.90;;;;;;5051614;28;20140;-69
2021/12/12 01:58:27;;;;;;;22.60;5.57;;;10.80;99.90;;;;;;5051225;28;20060;-69
2021/12/12 02:01:05;;;;;;;12.82;5.13;;;10.80;99.90;;;;;;5051025;28;20139;-69
2021/12/12 02:03:34;;;;;;;15.27;5.40;;;10.80;99.90;;;;;;5052776;28;20222;-70
2021/12/12 02:06:01;;;;;;;15.68;7.15;;;10.80;99.90;;;;;;5051015;28;20412;-70
2021/12/12 02:08:29;;;;;;;18.75;6.10;;;10.90;99.90;;;;;;5051671;28;20045;-70
2021/12/12 02:11:06;;;;;;;22.17;7.53;;;10.80;99.90;;;;;;5014996;28;20460;-70
2021/12/12 02:13:37;;;;;;;16.88;6.45;;;10.90;99.90;;;;;;5060858;28;20158;-70
2021/12/12 02:16:04;;;;;;;23.13;6.53;;;10.80;99.90;;;;;;5052202;28;20127;-70
2021/12/12 02:18:35;;;;;;;14.85;7.18;;;10.90;99.90;;;;;;5062462;28;20049;-70
2021/12/12 02:21:26;;;;;;;20.17;7.82;;;10.90;99.90;;;;;;5051391;28;20057;-70
2021/12/12 02:37:30;;;;;;;15.73;6.13;;;10.90;99.90;;;;;;5052073;28;20128;-72
2021/12/12 02:39:57;;;;;;;22.08;6.65;;;10.90;99.90;;;;;;5046094;28;20066;-70
2021/12/12 02:42:24;;;;;;;22.08;5.53;;;10.90;99.90;;;;;;5070602;28;20055;-69
2021/12/12 02:44:56;;;;;;;20.30;5.75;;;10.90;99.90;;;;;;5065501;28;20072;-70
2021/12/12 02:47:32;;;;;;;25.77;6.47;;;10.90;99.90;;;;;;5048526;28;20045;-70
2021/12/12 02:50:13;;;;;;;22.20;6.43;;;10.90;99.90;;;;;;5050593;28;20049;-71
2021/12/12 02:52:52;;;;;;;15.60;5.75;;;10.90;99.90;;;;;;5052274;28;20160;-70
2021/12/12 02:55:27;;;;;;;28.40;7.55;;;10.90;99.90;;;;;;5051673;28;20059;-75
2021/12/12 02:57:55;;;;;;;19.50;6.07;;;10.90;99.90;;;;;;5049775;28;20057;-70
2021/12/12 03:00:23;;;;;;;22.42;5.53;;;10.90;99.90;;;;;;5033635;28;20055;-70
2021/12/12 03:02:56;;;;;;;16.80;6.25;;;11.00;99.90;;;;;;5051572;28;20114;-74
2021/12/12 03:05:25;;;;;;;26.85;6.63;;;11.00;99.90;;;;;;5051665;28;20071;-70
2021/12/12 03:07:52;;;;;;;30.17;7.53;;;10.90;99.90;;;;;;5050846;28;20064;-70
2021/12/12 03:10:22;;;;;;;23.23;5.47;;;10.90;99.90;;;;;;5064709;28;20076;-69
2021/12/12 03:12:49;;;;;;;20.40;5.30;;;10.90;99.90;;;;;;5062626;28;20412;-69
2021/12/12 03:15:23;;;;;;;17.52;6.03;;;11.00;99.90;;;;;;5033412;28;20053;-69
2021/12/12 03:17:56;;;;;;;16.35;4.55;;;11.00;99.90;;;;;;5050612;28;20598;-75
2021/12/12 03:20:33;;;;;;;15.95;5.55;;;11.00;99.90;;;;;;5050250;28;20358;-69
2021/12/12 03:23:19;;;;;;;21.08;6.18;;;11.00;99.90;;;;;;5050489;28;20055;-71
2021/12/12 03:25:52;;;;;;;18.85;5.78;;;11.00;99.90;;;;;;5050304;28;20378;-69
2021/12/12 03:28:20;;;;;;;22.05;6.35;;;11.00;99.90;;;;;;5050881;28;20049;-70
2021/12/12 03:30:48;;;;;;;26.17;6.53;;;11.00;99.90;;;;;;5033118;28;20133;-70
2021/12/12 03:33:15;;;;;;;14.73;5.00;;;11.00;99.90;;;;;;5049976;28;20077;-69
2021/12/12 03:35:46;;;;;;;14.77;4.47;;;11.00;99.90;;;;;;5057092;28;20090;-72
2021/12/12 03:38:14;;;;;;;18.30;4.85;;;11.00;99.90;;;;;;5054902;28;20372;-70
2021/12/12 03:40:41;;;;;;;15.43;3.83;;;11.00;99.90;;;;;;5051303;28;20136;-70
2021/12/12 03:43:08;;;;;;;17.05;4.53;;;11.00;99.90;;;;;;5066994;28;20083;-70
2021/12/12 03:45:35;;;;;;;16.83;5.10;;;11.00;99.90;;;;;;5049743;28;20045;-70
2021/12/12 03:48:09;;;;;;;11.30;4.05;;;11.00;99.90;;;;;;5051370;28;20136;-70
2021/12/12 03:50:37;;;;;;;16.77;5.35;;;11.00;99.90;;;;;;5052793;28;20446;-71
2021/12/12 03:53:04;;;;;;;12.93;5.53;;;11.10;99.90;;;;;;5053139;28;20121;-69
2021/12/12 03:55:31;;;;;;;12.32;4.97;;;11.10;99.90;;;;;;5050659;28;20839;-70
2021/12/12 03:57:59;;;;;;;11.35;4.75;;;11.10;99.90;;;;;;5053219;28;20156;-69
2021/12/12 04:00:33;;;;;;;14.73;5.97;;;11.10;99.90;;;;;;5064636;28;20045;-69
2021/12/12 04:03:00;;;;;;;16.15;5.25;;;11.10;99.90;;;;;;5055671;28;20045;-69
2021/12/12 04:05:27;;;;;;;13.68;5.85;;;11.10;99.90;;;;;;5061498;28;20420;-69
2021/12/12 04:07:55;;;;;;;10.85;5.40;;;11.10;99.90;;;;;;5069772;28;20075;-70
2021/12/12 04:10:24;;;;;;;15.80;6.57;;;11.10;99.90;;;;;;5069534;28;20059;-70
2021/12/12 04:12:51;;;;;;;12.88;6.22;;;11.10;99.90;;;;;;5059577;28;20051;-69
2021/12/12 04:15:18;;;;;;;10.55;5.93;;;11.10;99.90;;;;;;5067225;28;20052;-69
2021/12/12 04:17:46;;;;;;;14.68;7.10;;;11.20;99.90;;;;;;5049568;28;20045;-70
2021/12/12 04:20:28;;;;;;;16.48;6.80;;;11.20;99.90;;;;;;5026190;28;20045;-69
2021/12/12 04:22:55;;;;;;;12.13;6.57;;;11.20;99.90;;;;;;5058863;28;20044;-69
2021/12/12 04:25:23;;;;;;;10.48;5.82;;;11.20;99.90;;;;;;5070886;28;20051;-69
2021/12/12 04:27:50;;;;;;;13.10;5.35;;;11.20;99.90;;;;;;5064360;28;20045;-72
2021/12/12 04:30:18;;;;;;;11.93;4.90;;;11.20;99.90;;;;;;5063281;28;20051;-69
2021/12/12 04:32:46;;;;;;;11.82;4.70;;;11.30;99.90;;;;;;5068068;28;20231;-69
2021/12/12 04:35:21;;;;;;;10.57;4.68;;;11.30;99.90;;;;;;5069297;28;20052;-68
2021/12/12 04:37:48;;;;;;;8.07;4.50;;;11.30;99.90;;;;;;5068605;28;20055;-69
2021/12/12 04:40:17;;;;;;;11.68;4.68;;;11.30;99.90;;;;;;5060376;28;20076;-68
2021/12/12 04:42:45;;;;;;;8.98;4.82;;;11.40;99.90;;;;;;5048699;28;20053;-69
2021/12/12 04:45:36;;;;;;;11.93;4.90;;;11.40;99.90;;;;;;5058089;28;20377;-69
2021/12/12 04:51:21;;;;;;;7.80;4.70;;;11.40;99.90;;;;;;5050054;28;20051;-69
2021/12/12 04:54:25;;;;;;;7.30;5.00;;;11.50;99.90;;;;;;5046353;28;20561;-69
2021/12/12 04:57:18;;;;;;;9.93;4.38;;;11.50;99.90;;;;;;5049368;28;20400;-69
2021/12/12 04:59:47;;;;;;;8.77;4.68;;;11.50;99.90;;;;;;5047162;28;20088;-69
2021/12/12 05:02:31;;;;;;;6.72;4.63;;;11.50;99.90;;;;;;5048368;28;20467;-69
2021/12/12 05:05:04;;;;;;;9.65;4.30;;;11.50;99.90;;;;;;5028052;28;20045;-67
2021/12/12 05:07:42;;;;;;;9.50;4.05;;;11.50;99.90;;;;;;5050261;28;20109;-70
2021/12/12 05:10:23;;;;;;;6.75;3.95;;;11.60;99.90;;;;;;5053042;28;20045;-69
2021/12/12 05:13:02;;;;;;;7.15;3.55;;;11.60;99.90;;;;;;5048505;28;20052;-70
2021/12/12 05:15:32;;;;;;;8.00;4.00;;;11.60;99.90;;;;;;5048388;28;20044;-69
2021/12/12 05:18:03;;;;;;;4.80;3.65;;;11.60;99.90;;;;;;5048122;28;20052;-68
2021/12/12 05:20:35;;;;;;;6.25;3.90;;;11.60;99.90;;;;;;5049821;28;20424;-69
2021/12/12 05:23:06;;;;;;;6.53;3.78;;;11.70;99.90;;;;;;5052288;28;20045;-68
2021/12/12 05:25:59;;;;;;;7.82;4.00;;;11.70;99.90;;;;;;5052400;28;20377;-68
2021/12/12 05:28:38;;;;;;;6.30;3.80;;;11.70;99.90;;;;;;5033432;28;20179;-68
2021/12/12 05:31:06;;;;;;;;;;;11.70;99.90;;;;;;5016566;28;20061;-68
2021/12/12 05:33:33;;;;;;;5.50;3.35;;;11.70;99.90;;;;;;5033271;28;20009;-67
2021/12/12 05:36:00;;;;;;;5.63;3.70;;;11.70;99.90;;;;;;5032283;28;20132;-67
2021/12/12 05:38:28;;;;;;;6.32;3.88;;;11.70;99.90;;;;;;4999518;28;20056;-70
2021/12/12 05:40:55;;;;;;;9.43;3.60;;;11.70;99.90;;;;;;5054816;28;20143;-70
2021/12/12 05:43:22;;;;;;;5.13;3.42;;;11.80;99.90;;;;;;5072232;28;20447;-69
2021/12/12 05:45:50;;;;;;;7.28;3.17;;;11.80;99.90;;;;;;5066368;28;20045;-70
2021/12/12 05:48:19;;;;;;;6.70;3.10;;;11.80;99.90;;;;;;5034944;28;20044;-67
2021/12/12 05:50:45;;;;;;;6.63;3.33;;;11.80;99.90;;;;;;5051229;28;20135;-70
2021/12/12 05:53:13;;;;;;;8.32;3.45;;;11.80;99.90;;;;;;5051584;28;20378;-70
2021/12/12 05:55:41;;;;;;;5.90;3.58;;;11.90;99.90;;;;;;5049581;28;20045;-70
2021/12/12 05:58:09;;;;;;;6.00;3.35;;;11.90;99.90;;;;;;5052469;28;20472;-70
2021/12/12 06:01:03;;;;;;;7.00;3.70;;;11.90;99.90;;;;;;5052312;28;20045;-70
2021/12/12 06:03:37;;;;;;;7.15;3.42;;;11.90;99.90;;;;;;5052450;28;20049;-70
2021/12/12 06:06:09;;;;;;;7.85;3.78;;;12.00;99.90;;;;;;5051578;28;20057;-70
2021/12/12 06:08:36;;;;;;;7.82;4.18;;;11.90;99.90;;;;;;5053410;28;20052;-70
2021/12/12 06:11:04;;;;;;;7.20;3.70;;;11.90;99.90;;;;;;5066460;28;20048;-70
2021/12/12 06:13:31;;;;;;;6.75;3.80;;;11.90;99.90;;;;;;5068459;28;20195;-69
2021/12/12 06:15:59;;;;;;;8.45;3.45;;;11.90;99.90;;;;;;5028200;28;20088;-69
2021/12/12 06:18:28;;;;;;;6.13;3.20;;;11.90;99.90;;;;;;5062447;28;20414;-69
2021/12/12 06:20:55;;;;;;;7.70;3.42;;;11.90;99.90;;;;;;5054076;28;20492;-69
2021/12/12 06:23:22;;;;;;;6.72;2.97;;;12.00;99.90;;;;;;5046409;28;20463;-70
2021/12/12 06:25:49;;;;;;;6.97;2.45;;;12.00;99.90;;;;;;5051981;28;20055;-70
2021/12/12 06:28:20;;;;;;;7.53;2.92;;;12.00;99.90;;;;;;5050584;28;20060;-69
2021/12/12 06:30:47;;;;;;;6.05;2.38;;;12.00;99.90;;;;;;5034359;28;20045;-69
2021/12/12 06:33:14;;;;;;;6.20;3.50;;;12.00;99.90;;;;;;5052413;28;20052;-71
2021/12/12 06:35:41;;;;;;;4.10;2.58;;;12.00;99.90;;;;;;5050886;28;20144;-69
2021/12/12 06:38:10;;;;;;;6.97;2.50;;;12.00;99.90;;;;;;5050914;28;20055;-70
2021/12/12 06:40:37;;;;;;;5.20;2.83;;;12.10;99.90;;;;;;5041478;28;20504;-70
2021/12/12 06:43:06;;;;;;;4.72;2.40;;;12.10;99.90;;;;;;5050665;28;20059;-69
2021/12/12 06:45:34;;;;;;;5.85;2.38;;;12.10;99.90;;;;;;5051342;28;20045;-69
2021/12/12 06:48:06;;;;;;;8.23;3.28;;;12.10;99.90;;;;;;5050418;28;20140;-69
2021/12/12 06:50:33;;;;;;;5.00;2.50;;;12.10;99.90;;;;;;5051991;28;20388;-69
2021/12/12 06:53:00;;;;;;;7.13;2.88;;;12.10;99.90;;;;;;5039187;28;20388;-69
2021/12/12 06:55:28;;;;;;;6.00;2.70;;;12.10;99.90;;;;;;5031850;28;20094;-69
2021/12/12 06:57:55;;;;;;;6.22;2.00;;;12.10;99.90;;;;;;5030743;28;20064;-69
2021/12/12 07:00:23;;;;;;;6.68;2.13;;;12.20;99.90;;;;;;5031802;28;20045;-71
2021/12/12 07:02:50;;;;;;;5.00;1.63;;;12.20;99.90;;;;;;5039492;28;20053;-69
2021/12/12 07:05:21;;;;;;;4.82;1.88;;;12.20;99.90;;;;;;5050583;28;20063;-69
2021/12/12 07:07:48;;;;;;;4.53;1.98;;;12.20;99.90;;;;;;5050353;28;20057;-70
2021/12/12 07:10:16;;;;;;;6.72;2.13;;;12.20;99.90;;;;;;5065735;28;20060;-69
2021/12/12 07:12:44;;;;;;;5.47;1.95;;;12.20;99.90;;;;;;5069600;28;20101;-68
2021/12/12 07:15:12;;;;;;;5.72;1.90;;;12.30;99.90;;;;;;5054696;28;20052;-69
2021/12/12 07:17:39;;;;;;;7.68;1.80;;;12.30;99.90;;;;;;5044062;28;20044;-69
2021/12/12 07:20:07;;;;;;;6.63;1.90;;;12.30;99.90;;;;;;5051102;28;20045;-69
2021/12/12 07:22:34;;;;;;;4.65;1.85;;;12.30;99.90;;;;;;5033358;28;20080;-69
2021/12/12 07:25:01;;;;;;;4.95;2.00;;;12.30;99.90;;;;;;5051827;28;20041;-68
2021/12/12 07:27:28;;;;;;;7.07;1.85;;;12.30;99.90;;;;;;5051202;28;20045;-73
2021/12/12 07:29:56;;;;;;;5.85;2.13;;;12.30;99.90;;;;;;5051688;28;20080;-69
2021/12/12 07:32:25;;;;;;;5.65;2.00;;;12.30;99.90;;;;;;5062268;28;20123;-68
2021/12/12 07:34:52;;;;;;;4.47;1.85;;;12.30;99.90;;;;;;5050459;28;20099;-69
2021/12/12 07:37:19;;;;;;;6.47;1.60;;;12.30;99.90;;;;;;5049790;28;20061;-69
2021/12/12 07:39:46;;;;;;;8.93;2.40;;;12.30;99.90;;;;;;5060292;28;20408;-68
2021/12/12 07:42:14;;;;;;;5.13;2.25;;;12.30;99.90;;;;;;5071110;28;20045;-68
2021/12/12 07:44:43;;;;;;;7.85;2.60;;;12.30;99.90;;;;;;5068811;28;20041;-69
2021/12/12 07:47:11;;;;;;;6.78;2.15;;;12.30;99.90;;;;;;5053106;28;20118;-69
2021/12/12 07:49:41;;;;;;;4.70;2.40;;;12.30;99.90;;;;;;5050963;28;20056;-68
2021/12/12 07:52:10;;;;;;;;;;;12.30;99.90;;;;;;5047526;28;20070;-68
2021/12/12 07:54:37;;;;;;;7.05;1.45;;;12.30;99.90;;;;;;5065819;28;19931;-68
2021/12/12 07:57:05;;;;;;;5.13;1.98;;;12.30;99.90;;;;;;5050527;28;20049;-68
2021/12/12 07:59:33;;;;;;;4.32;1.90;;;12.40;99.90;;;;;;5049065;28;20057;-68
2021/12/12 08:02:00;;;;;;;5.50;2.00;;;12.30;99.90;;;;;;5032702;28;20045;-68
2021/12/12 08:04:28;;;;;;;5.93;2.15;;;12.40;99.90;;;;;;5049402;28;20045;-67
2021/12/12 08:06:55;;;;;;;4.68;2.00;;;12.40;99.90;;;;;;5032593;28;20063;-68
2021/12/12 08:09:22;;;;;;;5.95;2.35;;;12.30;99.90;;;;;;5039792;28;20040;-68
2021/12/12 08:11:50;;;;;;;7.25;2.70;;;12.30;99.90;;;;;;5069366;28;20139;-68
2021/12/12 08:14:20;;;;;;;6.55;3.50;;;12.30;99.90;;;;;;5069204;28;20401;-68
2021/12/12 08:16:48;;;;;;;10.23;3.45;;;12.30;99.90;;;;;;5057890;28;20136;-68
2021/12/12 08:19:19;;;;;;;7.03;3.33;;;12.30;99.90;;;;;;5048990;28;20059;-69
2021/12/12 08:21:47;;;;;;;10.55;3.55;;;12.20;99.90;;;;;;5049537;28;20379;-68
2021/12/12 08:24:14;;;;;;;8.15;3.95;;;12.30;99.90;;;;;;5049330;28;20477;-69
2021/12/12 08:26:43;;;;;;;6.47;3.03;;;12.30;99.90;;;;;;5032435;28;20488;-69
2021/12/12 08:29:11;;;;;;;8.20;3.05;;;12.30;99.90;;;;;;5016361;28;20045;-68
2021/12/12 08:31:38;;;;;;;7.70;3.40;;;12.30;99.90;;;;;;5049272;28;20102;-68
2021/12/12 08:34:09;;;;;;;5.15;2.55;;;12.30;99.90;;;;;;5014504;28;20129;-68
2021/12/12 08:36:37;;;;;;;5.25;2.60;;;12.30;99.90;;;;;;5029294;28;20047;-68
2021/12/12 08:39:05;;;;;;;8.98;3.30;;;12.30;99.90;;;;;;5013833;28;20124;-68
2021/12/12 08:41:32;;;;;;;9.30;3.55;;;12.40;99.90;;;;;;5051899;28;20120;-68
2021/12/12 08:43:59;;;;;;;6.32;2.50;;;12.30;99.90;;;;;;5067394;28;20060;-68
2021/12/12 08:46:26;;;;;;;6.65;2.50;;;12.30;99.90;;;;;;5049751;28;20055;-68
2021/12/12 08:48:53;;;;;;;8.07;2.95;;;12.40;99.90;;;;;;5048058;28;20100;-68
2021/12/12 08:51:29;;;;;;;10.85;3.83;;;12.40;99.90;;;;;;5028249;28;20415;-69
2021/12/12 08:54:03;;;;;;;10.07;3.10;;;12.30;99.90;;;;;;5049680;28;20120;-71
2021/12/12 08:56:41;;;;;;;8.15;3.42;;;12.30;99.90;;;;;;5048724;28;20128;-69
2021/12/12 08:59:10;;;;;;;9.15;3.63;;;12.40;99.90;;;;;;5033135;28;20053;-68
2021/12/12 09:01:38;;;;;;;8.80;3.88;;;12.40;99.90;;;;;;5031785;28;20128;-68
2021/12/12 09:04:06;;;;;;;12.52;4.25;;;12.40;99.90;;;;;;5048486;28;20052;-69
2021/12/12 09:07:10;;;;;;;12.30;4.63;;;12.40;99.90;;;;;;5048431;28;20087;-69
2021/12/12 09:09:46;;;;;;;13.82;5.00;;;12.30;99.90;;;;;;5048330;28;20127;-69
2021/12/12 09:12:22;;;;;;;7.43;4.28;;;12.30;99.90;;;;;;5033086;28;20071;-68
2021/12/12 09:15:16;;;;;;;9.18;3.58;;;12.40;99.90;;;;;;5017696;28;20114;-69
2021/12/12 09:17:45;;;;;;;16.02;6.82;;;12.40;99.90;;;;;;5028911;28;20041;-67
2021/12/12 09:20:24;;;;;;;1032.15;557.78;;;12.40;99.90;;;;;;5042939;28;20063;-67
2021/12/12 09:23:00;;;;;;;71.07;49.38;;;12.50;99.90;;;;;;5039747;28;20124;-69
2021/12/12 09:25:42;;;;;;;18.23;11.50;;;12.50;99.90;;;;;;5013803;28;20168;-71
2021/12/12 09:28:22;;;;;;;14.57;6.40;;;12.50;99.90;;;;;;5060194;28;20548;-68
2021/12/12 09:30:49;;;;;;;13.23;4.20;;;12.50;99.90;;;;;;5050777;28;20074;-67
2021/12/12 09:33:20;;;;;;;14.63;4.88;;;12.50;99.90;;;;;;5068489;28;20131;-67
2021/12/12 09:35:53;;;;;;;11.25;3.97;;;12.50;99.90;;;;;;5053277;28;20939;-68
2021/12/12 09:38:52;;;;;;;18.95;4.68;;;12.50;99.90;;;;;;5037626;28;20059;-67
2021/12/12 09:41:47;;;;;;;16.47;5.97;;;12.60;99.90;;;;;;5050996;28;20140;-67
2021/12/12 09:44:42;;;;;;;14.60;4.47;;;12.70;99.90;;;;;;5068227;28;20059;-68
2021/12/12 09:47:56;;;;;;;88.22;69.20;;;12.70;99.90;;;;;;5045525;28;20084;-67
2021/12/12 09:53:28;;;;;;;13.90;5.00;;;13.00;99.90;;;;;;5044567;28;20438;-67
2021/12/12 09:56:33;;;;;;;17.77;4.82;;;12.90;99.90;;;;;;5050076;28;20493;-68
2021/12/12 09:59:32;;;;;;;12.23;4.90;;;12.90;99.90;;;;;;5048620;28;20464;-66
2021/12/12 10:02:07;;;;;;;48.17;34.87;;;12.80;99.90;;;;;;5034666;28;20091;-69
2021/12/12 10:05:34;;;;;;;20.30;8.35;;;12.80;99.90;;;;;;5055654;28;20095;-69
2021/12/12 10:08:10;;;;;;;16.48;7.57;;;12.70;99.90;;;;;;5033586;28;20057;-69
2021/12/12 10:10:47;;;;;;;18.98;7.85;;;12.60;99.90;;;;;;5031251;28;20046;-69
2021/12/12 10:14:01;;;;;;;20.52;6.65;;;12.50;99.90;;;;;;5048244;28;20132;-69
2021/12/12 10:16:50;;;;;;;21.65;7.28;;;12.50;99.90;;;;;;5008775;28;20433;-70
2021/12/12 10:19:42;;;;;;;15.13;6.67;;;12.60;99.90;;;;;;5033138;28;20063;-70
2021/12/12 10:22:35;;;;;;;14.27;8.00;;;12.60;99.90;;;;;;5052420;28;20139;-71
2021/12/12 10:25:10;;;;;;;30.17;15.60;;;12.80;99.90;;;;;;5036899;28;20051;-71
2021/12/12 10:27:50;;;;;;;81.78;46.17;;;12.90;99.90;;;;;;5068208;28;20045;-61
2021/12/12 10:30:20;;;;;;;18.65;8.75;;;12.90;99.90;;;;;;5070860;28;20048;-62
2021/12/12 10:33:12;;;;;;;852.80;515.97;;;12.90;99.90;;;;;;5070979;28;20052;-72
2021/12/12 10:35:41;;;;;;;44.75;28.52;;;12.90;99.90;;;;;;5060095;28;20114;-70
2021/12/12 10:38:18;;;;;;;20.75;10.32;;;12.90;99.90;;;;;;5050214;28;20051;-67
2021/12/12 10:40:50;;;;;;;13.43;7.65;;;12.90;99.90;;;;;;5068283;28;20507;-70
2021/12/12 10:43:35;;;;;;;23.88;7.57;;;13.00;99.90;;;;;;5040240;28;20048;-71
2021/12/12 10:46:10;;;;;;;17.52;6.43;;;13.00;99.90;;;;;;5056002;28;20094;-70
2021/12/12 10:48:55;;;;;;;28.83;7.93;;;13.00;99.90;;;;;;5062462;28;20428;-70
2021/12/12 10:51:22;;;;;;;23.67;6.95;;;13.00;99.90;;;;;;5051057;28;20207;-70
2021/12/12 10:54:08;;;;;;;16.15;6.53;;;13.10;99.90;;;;;;5050200;28;20049;-70
2021/12/12 10:56:39;;;;;;;18.92;6.22;;;13.10;99.90;;;;;;5062773;28;20631;-68
2021/12/12 10:59:18;;;;;;;21.92;7.80;;;13.10;99.90;;;;;;5048944;28;20045;-68
2021/12/12 11:01:47;;;;;;;12.73;6.07;;;13.10;99.90;;;;;;5069619;28;20075;-68
2021/12/12 11:04:22;;;;;;;12.13;5.97;;;13.10;99.90;;;;;;5044180;28;20053;-64
2021/12/12 11:06:51;;;;;;;32.70;15.93;;;13.20;99.90;;;;;;5051727;28;20057;-69
2021/12/12 11:09:38;;;;;;;22.75;5.90;;;13.20;99.90;;;;;;5050382;28;20396;-69
2021/12/12 11:12:19;;;;;;;16.70;6.85;;;13.20;99.90;;;;;;5064074;28;20049;-72
2021/12/12 11:15:14;;;;;;;22.05;6.30;;;13.20;99.90;;;;;;5042569;28;20595;-73
2021/12/12 11:17:58;;;;;;;17.90;6.35;;;13.20;99.90;;;;;;5042021;28;20055;-70
2021/12/12 11:20:28;;;;;;;15.93;4.65;;;13.20;99.90;;;;;;5045958;28;20069;-72
2021/12/12 11:23:07;;;;;;;17.05;5.20;;;13.20;99.90;;;;;;5059020;28;20088;-69
2021/12/12 11:25:40;;;;;;;22.00;6.90;;;13.30;99.90;;;;;;5053459;28;20250;-71
2021/12/12 11:28:29;;;;;;;15.15;5.78;;;13.30;99.90;;;;;;5068181;28;20057;-71
2021/12/12 11:31:00;;;;;;;13.80;5.60;;;13.30;99.90;;;;;;5067397;28;20515;-66
2021/12/12 11:33:30;;;;;;;15.70;5.25;;;13.30;99.90;;;;;;5063599;28;20106;-67
2021/12/12 11:35:57;;;;;;;24.35;7.32;;;13.40;99.90;;;;;;5050050;28;20053;-62
2021/12/12 11:38:31;;;;;;;38.20;31.40;;;13.40;99.90;;;;;;5052954;28;20053;-66
2021/12/12 11:41:10;;;;;;;20.65;11.57;;;13.50;99.90;;;;;;5048571;28;20103;-73
2021/12/12 11:43:48;;;;;;;25.27;7.18;;;13.50;99.90;;;;;;5053014;28;20040;-67
2021/12/12 11:46:25;;;;;;;20.48;7.75;;;13.40;99.90;;;;;;5048575;28;20071;-70
2021/12/12 11:49:11;;;;;;;16.98;6.18;;;13.30;99.90;;;;;;5050831;28;20480;-75
2021/12/12 11:52:08;;;;;;;14.65;5.20;;;13.30;99.90;;;;;;5014127;28;20099;-72
2021/12/12 11:54:47;;;;;;;18.88;5.72;;;13.30;99.90;;;;;;5059884;28;20488;-74
2021/12/12 11:57:19;;;;;;;15.57;6.25;;;13.30;99.90;;;;;;5050613;28;20054;-64
2021/12/12 12:00:14;;;;;;;19.08;5.85;;;13.30;99.90;;;;;;5041226;28;20132;-65
2021/12/12 12:03:09;;;;;;;15.75;5.28;;;13.30;99.90;;;;;;5042483;28;20088;-67
2021/12/12 12:05:36;;;;;;;18.50;6.50;;;13.40;99.90;;;;;;5040417;28;20096;-68
2021/12/12 12:08:12;;;;;;;17.88;7.40;;;13.40;99.90;;;;;;5046184;28;20141;-68
2021/12/12 12:10:51;;;;;;;15.30;6.95;;;13.40;99.90;;;;;;5040376;28;20060;-68
2021/12/12 12:13:33;;;;;;;15.73;6.63;;;13.40;99.90;;;;;;5041087;28;20123;-70
2021/12/12 12:16:23;;;;;;;16.77;6.03;;;13.50;99.90;;;;;;5047145;28;20056;-67
2021/12/12 12:18:55;;;;;;;25.45;11.82;;;13.50;99.90;;;;;;5040916;28;20083;-69
2021/12/12 12:25:19;;;;;;;37.80;22.80;;;13.60;99.90;;;;;;5058970;28;20040;-71
2021/12/12 12:27:56;;;;;;;270.58;204.05;;;13.70;99.90;;;;;;5034721;28;20049;-70
2021/12/12 12:31:00;;;;;;;21.50;11.45;;;13.80;99.90;;;;;;5054360;28;20052;-68
2021/12/12 12:34:05;;;;;;;16.65;6.07;;;13.70;99.90;;;;;;5052849;28;20080;-70
2021/12/12 12:37:09;;;;;;;16.95;6.43;;;13.70;99.90;;;;;;5050552;28;20208;-70
2021/12/12 12:40:13;;;;;;;10.80;5.68;;;13.70;99.90;;;;;;5030661;28;20065;-71
2021/12/12 12:43:17;;;;;;;11.07;4.97;;;13.80;99.90;;;;;;5058188;28;20048;-67
2021/12/12 12:46:27;;;;;;;19.52;5.85;;;13.80;99.90;;;;;;5058232;28;20132;-70
2021/12/12 12:49:31;;;;;;;10.43;6.13;;;13.90;99.90;;;;;;5031463;28;20057;-70
2021/12/12 12:52:32;;;;;;;26.95;16.38;;;13.90;99.90;;;;;;5043651;28;20049;-69
2021/12/12 12:54:59;;;;;;;16.48;7.30;;;13.90;99.90;;;;;;5057318;28;20044;-67
2021/12/12 12:57:30;;;;;;;11.27;5.63;;;14.00;99.90;;;;;;5042866;28;20059;-69
2021/12/12 13:03:45;;;;;;;10.48;4.68;;;13.90;99.90;;;;;;5049191;28;20040;-69
2021/12/12 13:06:35;;;;;;;12.85;5.10;;;13.80;99.90;;;;;;5048648;28;20045;-69
2021/12/12 13:09:09;;;;;;;11.32;4.30;;;13.80;99.90;;;;;;5044093;28;20049;-69
2021/12/12 13:11:40;;;;;;;13.60;4.47;;;13.80;99.90;;;;;;5044056;28;20055;-67
2021/12/12 13:14:11;;;;;;;11.20;4.45;;;13.80;99.90;;;;;;5030405;28;20085;-67
2021/12/12 13:16:46;;;;;;;13.82;4.65;;;13.90;99.90;;;;;;5044081;28;20470;-68
2021/12/12 13:19:50;;;;;;;15.63;5.15;;;14.00;99.90;;;;;;5045791;28;20045;-67
2021/12/12 13:22:29;;;;;;;8.10;4.45;;;13.90;99.90;;;;;;5046660;28;20052;-67
2021/12/12 13:25:21;;;;;;;13.02;4.50;;;13.90;99.90;;;;;;5026258;28;20143;-67
2021/12/12 13:28:17;;;;;;;10.57;4.22;;;13.90;99.90;;;;;;5029292;28;20080;-67
2021/12/12 13:31:00;;;;;;;51.35;45.28;;;13.90;99.90;;;;;;5033297;28;20076;-66
2021/12/12 13:33:39;;;;;;;54.42;32.55;;;13.80;99.90;;;;;;5017901;28;20101;-68
2021/12/12 13:36:15;;;;;;;18.42;5.97;;;13.90;99.90;;;;;;5049581;28;20107;-69
2021/12/12 13:38:49;;;;;;;9.05;3.92;;;13.90;99.90;;;;;;5048102;28;20084;-68
2021/12/12 13:41:22;;;;;;;8.48;4.18;;;13.90;99.90;;;;;;5040190;28;20061;-68
2021/12/12 13:44:12;;;;;;;11.15;3.90;;;13.80;99.90;;;;;;5020532;28;20052;-68
2021/12/12 13:46:51;;;;;;;;;;;13.90;99.90;;;;;;5051834;28;20144;-70